sensor_id;sensor_type;location;lat;lon;timestamp;pressure;altitude;pressure_sealevel;temperature;humidity
23361;BME280;11852;50.082;18.554;2023-11-21T00:00:24;97798.0;;;8.76;100.0
23361;BME280;11852;50.082;18.554;2023-11-21T00:01:29;97801.0;;;8.76;100.0
23361;BME280;11852;50.082;18.554;2023-11-21T00:02:34;97800.0;;;8.74;100.0
23361;BME280;11852;50.082;18.554;2023-11-21T00:03:39;97799.0;;;8.72;100.0
23361;BME280;11852;50.082;18.554;2023-11-21T00:04:44;97801.0;;;8.78;100.0
23361;BME280;11852;50.082;18.554;2023-11-21T00:05:49;97801.0;;;8.78;100.0
23361;BME280;11852;50.082;18.554;2023-11-21T00:06:54;97802.0;;;8.76;100.0
23361;BME280;11852;50.082;18.554;2023-11-21T00:07:58;97801.0;;;8.78;100.0
23361;BME280;11852;50.082;18.554;2023-11-21T00:09:03;97806.0;;;8.8;100.0
23361;BME280;11852;50.082;18.554;2023-11-21T00:10:08;97803.0;;;8.82;100.0
23361;BME280;11852;50.082;18.554;2023-11-21T00:11:13;97805.0;;;8.81;100.0
23361;BME280;11852;50.082;18.554;2023-11-21T00:12:21;97803.0;;;8.84;100.0
23361;BME280;11852;50.082;18.554;2023-11-21T00:13:26;97805.0;;;8.77;100.0
23361;BME280;11852;50.082;18.554;2023-11-21T00:14:31;97804.0;;;8.78;100.0
23361;BME280;11852;50.082;18.554;2023-11-21T00:15:35;97805.0;;;8.76;100.0
23361;BME280;11852;50.082;18.554;2023-11-21T00:16:41;97805.0;;;8.79;100.0
23361;BME280;11852;50.082;18.554;2023-11-21T00:17:45;97805.0;;;8.82;100.0
23361;BME280;11852;50.082;18.554;2023-11-21T00:18:50;97809.0;;;8.79;100.0
23361;BME280;11852;50.082;18.554;2023-11-21T00:19:55;97809.0;;;8.79;100.0
23361;BME280;11852;50.082;18.554;2023-11-21T00:21:00;97813.0;;;8.83;100.0
23361;BME280;11852;50.082;18.554;2023-11-21T00:22:05;97806.0;;;8.82;100.0
23361;BME280;11852;50.082;18.554;2023-11-21T00:23:10;97806.0;;;8.79;100.0
23361;BME280;11852;50.082;18.554;2023-11-21T00:24:14;97814.0;;;8.74;100.0
23361;BME280;11852;50.082;18.554;2023-11-21T00:25:19;97807.0;;;8.76;100.0
23361;BME280;11852;50.082;18.554;2023-11-21T00:26:24;97816.0;;;8.8;100.0
23361;BME280;11852;50.082;18.554;2023-11-21T00:27:29;97809.0;;;8.84;100.0
23361;BME280;11852;50.082;18.554;2023-11-21T00:28:34;97812.0;;;8.81;100.0
23361;BME280;11852;50.082;18.554;2023-11-21T00:29:41;97812.0;;;8.66;100.0
23361;BME280;11852;50.082;18.554;2023-11-21T00:30:46;97811.0;;;8.64;100.0
23361;BME280;11852;50.082;18.554;2023-11-21T00:31:51;97810.0;;;8.57;100.0
23361;BME280;11852;50.082;18.554;2023-11-21T00:32:56;97811.0;;;8.69;100.0
23361;BME280;11852;50.082;18.554;2023-11-21T00:34:03;97812.0;;;8.65;100.0
23361;BME280;11852;50.082;18.554;2023-11-21T00:35:08;97816.0;;;8.72;100.0
23361;BME280;11852;50.082;18.554;2023-11-21T00:36:13;97807.0;;;8.76;100.0
23361;BME280;11852;50.082;18.554;2023-11-21T00:37:20;97811.0;;;8.65;100.0
23361;BME280;11852;50.082;18.554;2023-11-21T00:38:25;97814.0;;;8.69;100.0
23361;BME280;11852;50.082;18.554;2023-11-21T00:39:29;97813.0;;;8.63;100.0
23361;BME280;11852;50.082;18.554;2023-11-21T00:40:34;97817.0;;;8.65;100.0
23361;BME280;11852;50.082;18.554;2023-11-21T00:41:39;97818.0;;;8.69;100.0
23361;BME280;11852;50.082;18.554;2023-11-21T00:42:44;97821.0;;;8.74;100.0
23361;BME280;11852;50.082;18.554;2023-11-21T00:43:54;97823.0;;;8.72;100.0
23361;BME280;11852;50.082;18.554;2023-11-21T00:45:02;97820.0;;;8.62;100.0
23361;BME280;11852;50.082;18.554;2023-11-21T00:46:10;97826.0;;;8.62;100.0
23361;BME280;11852;50.082;18.554;2023-11-21T00:47:15;97822.0;;;8.64;100.0
23361;BME280;11852;50.082;18.554;2023-11-21T00:48:22;97822.0;;;8.61;100.0
23361;BME280;11852;50.082;18.554;2023-11-21T00:49:27;97820.0;;;8.65;100.0
23361;BME280;11852;50.082;18.554;2023-11-21T00:50:35;97824.0;;;8.6;100.0
23361;BME280;11852;50.082;18.554;2023-11-21T00:51:40;97823.0;;;8.61;100.0
23361;BME280;11852;50.082;18.554;2023-11-21T00:52:45;97822.0;;;8.62;100.0
23361;BME280;11852;50.082;18.554;2023-11-21T00:53:50;97818.0;;;8.63;100.0
23361;BME280;11852;50.082;18.554;2023-11-21T00:54:54;97818.0;;;8.61;100.0
23361;BME280;11852;50.082;18.554;2023-11-21T00:56:00;97816.0;;;8.62;100.0
23361;BME280;11852;50.082;18.554;2023-11-21T00:57:04;97817.0;;;8.65;100.0
23361;BME280;11852;50.082;18.554;2023-11-21T00:58:09;97814.0;;;8.58;100.0
23361;BME280;11852;50.082;18.554;2023-11-21T00:59:14;97816.0;;;8.55;100.0
23361;BME280;11852;50.082;18.554;2023-11-21T01:00:19;97818.0;;;8.58;100.0
23361;BME280;11852;50.082;18.554;2023-11-21T01:01:24;97820.0;;;8.61;100.0
23361;BME280;11852;50.082;18.554;2023-11-21T01:02:29;97817.0;;;8.6;100.0
23361;BME280;11852;50.082;18.554;2023-11-21T01:03:33;97819.0;;;8.59;100.0
23361;BME280;11852;50.082;18.554;2023-11-21T01:04:41;97819.0;;;8.57;100.0
23361;BME280;11852;50.082;18.554;2023-11-21T01:05:46;97820.0;;;8.58;100.0
23361;BME280;11852;50.082;18.554;2023-11-21T01:06:50;97819.0;;;8.55;100.0
23361;BME280;11852;50.082;18.554;2023-11-21T01:07:57;97823.0;;;8.49;100.0
23361;BME280;11852;50.082;18.554;2023-11-21T01:09:02;97824.0;;;8.53;100.0
23361;BME280;11852;50.082;18.554;2023-11-21T01:10:10;97828.0;;;8.59;100.0
23361;BME280;11852;50.082;18.554;2023-11-21T01:11:17;97829.0;;;8.59;100.0
23361;BME280;11852;50.082;18.554;2023-11-21T01:12:25;97827.0;;;8.55;100.0
23361;BME280;11852;50.082;18.554;2023-11-21T01:13:30;97823.0;;;8.46;100.0
23361;BME280;11852;50.082;18.554;2023-11-21T01:14:35;97826.0;;;8.44;100.0
23361;BME280;11852;50.082;18.554;2023-11-21T01:15:39;97825.0;;;8.43;100.0
23361;BME280;11852;50.082;18.554;2023-11-21T01:16:44;97823.0;;;8.4;100.0
23361;BME280;11852;50.082;18.554;2023-11-21T01:17:49;97819.0;;;8.44;100.0
23361;BME280;11852;50.082;18.554;2023-11-21T01:18:54;97815.0;;;8.45;100.0
23361;BME280;11852;50.082;18.554;2023-11-21T01:20:02;97821.0;;;8.49;100.0
23361;BME280;11852;50.082;18.554;2023-11-21T01:21:07;97818.0;;;8.49;100.0
23361;BME280;11852;50.082;18.554;2023-11-21T01:22:12;97823.0;;;8.52;100.0
23361;BME280;11852;50.082;18.554;2023-11-21T01:23:19;97821.0;;;8.55;100.0
23361;BME280;11852;50.082;18.554;2023-11-21T01:24:29;97823.0;;;8.57;100.0
23361;BME280;11852;50.082;18.554;2023-11-21T01:25:34;97822.0;;;8.54;100.0
23361;BME280;11852;50.082;18.554;2023-11-21T01:26:39;97825.0;;;8.52;100.0
23361;BME280;11852;50.082;18.554;2023-11-21T01:27:44;97825.0;;;8.54;100.0
23361;BME280;11852;50.082;18.554;2023-11-21T01:28:51;97825.0;;;8.56;100.0
23361;BME280;11852;50.082;18.554;2023-11-21T01:29:56;97827.0;;;8.56;100.0
23361;BME280;11852;50.082;18.554;2023-11-21T01:31:01;97825.0;;;8.53;100.0
23361;BME280;11852;50.082;18.554;2023-11-21T01:32:09;97829.0;;;8.54;100.0
23361;BME280;11852;50.082;18.554;2023-11-21T01:33:14;97828.0;;;8.51;100.0
23361;BME280;11852;50.082;18.554;2023-11-21T01:34:21;97827.0;;;8.5;100.0
23361;BME280;11852;50.082;18.554;2023-11-21T01:35:26;97824.0;;;8.43;100.0
23361;BME280;11852;50.082;18.554;2023-11-21T01:36:34;97828.0;;;8.41;100.0
23361;BME280;11852;50.082;18.554;2023-11-21T01:37:39;97830.0;;;8.45;100.0
23361;BME280;11852;50.082;18.554;2023-11-21T01:38:46;97828.0;;;8.44;100.0
23361;BME280;11852;50.082;18.554;2023-11-21T01:39:51;97833.0;;;8.37;100.0
23361;BME280;11852;50.082;18.554;2023-11-21T01:40:56;97831.0;;;8.27;100.0
23361;BME280;11852;50.082;18.554;2023-11-21T01:42:00;97829.0;;;8.29;100.0
23361;BME280;11852;50.082;18.554;2023-11-21T01:43:05;97833.0;;;8.34;100.0
23361;BME280;11852;50.082;18.554;2023-11-21T01:44:13;97831.0;;;8.33;100.0
23361;BME280;11852;50.082;18.554;2023-11-21T01:45:18;97829.0;;;8.37;100.0
23361;BME280;11852;50.082;18.554;2023-11-21T01:46:26;97830.0;;;8.4;100.0
23361;BME280;11852;50.082;18.554;2023-11-21T01:47:33;97830.0;;;8.41;100.0
23361;BME280;11852;50.082;18.554;2023-11-21T01:48:38;97825.0;;;8.39;100.0
23361;BME280;11852;50.082;18.554;2023-11-21T01:49:43;97821.0;;;8.4;100.0
23361;BME280;11852;50.082;18.554;2023-11-21T01:50:48;97820.0;;;8.33;100.0
23361;BME280;11852;50.082;18.554;2023-11-21T01:51:52;97822.0;;;8.36;100.0
23361;BME280;11852;50.082;18.554;2023-11-21T01:52:57;97820.0;;;8.4;100.0
23361;BME280;11852;50.082;18.554;2023-11-21T01:54:05;97821.0;;;8.42;100.0
23361;BME280;11852;50.082;18.554;2023-11-21T01:55:13;97822.0;;;8.42;100.0
23361;BME280;11852;50.082;18.554;2023-11-21T01:56:18;97819.0;;;8.42;100.0
23361;BME280;11852;50.082;18.554;2023-11-21T01:57:22;97826.0;;;8.34;100.0
23361;BME280;11852;50.082;18.554;2023-11-21T01:58:27;97829.0;;;8.32;100.0
23361;BME280;11852;50.082;18.554;2023-11-21T01:59:38;97823.0;;;8.37;100.0
23361;BME280;11852;50.082;18.554;2023-11-21T02:00:43;97826.0;;;8.39;100.0
23361;BME280;11852;50.082;18.554;2023-11-21T02:01:48;97824.0;;;8.4;100.0
23361;BME280;11852;50.082;18.554;2023-11-21T02:02:55;97825.0;;;8.4;100.0
23361;BME280;11852;50.082;18.554;2023-11-21T02:04:00;97825.0;;;8.39;100.0
23361;BME280;11852;50.082;18.554;2023-11-21T02:05:07;97828.0;;;8.37;100.0
23361;BME280;11852;50.082;18.554;2023-11-21T02:06:14;97827.0;;;8.38;100.0
23361;BME280;11852;50.082;18.554;2023-11-21T02:07:24;97827.0;;;8.4;100.0
23361;BME280;11852;50.082;18.554;2023-11-21T02:08:29;97826.0;;;8.39;100.0
23361;BME280;11852;50.082;18.554;2023-11-21T02:09:34;97824.0;;;8.41;100.0
23361;BME280;11852;50.082;18.554;2023-11-21T02:10:39;97826.0;;;8.42;100.0
23361;BME280;11852;50.082;18.554;2023-11-21T02:11:48;97822.0;;;8.42;100.0
23361;BME280;11852;50.082;18.554;2023-11-21T02:12:56;97818.0;;;8.4;100.0
23361;BME280;11852;50.082;18.554;2023-11-21T02:14:01;97819.0;;;8.4;100.0
23361;BME280;11852;50.082;18.554;2023-11-21T02:15:06;97821.0;;;8.4;100.0
23361;BME280;11852;50.082;18.554;2023-11-21T02:16:11;97820.0;;;8.41;100.0
23361;BME280;11852;50.082;18.554;2023-11-21T02:17:16;97821.0;;;8.42;100.0
23361;BME280;11852;50.082;18.554;2023-11-21T02:18:23;97824.0;;;8.43;100.0
23361;BME280;11852;50.082;18.554;2023-11-21T02:19:28;97818.0;;;8.43;100.0
23361;BME280;11852;50.082;18.554;2023-11-21T02:20:33;97821.0;;;8.43;100.0
23361;BME280;11852;50.082;18.554;2023-11-21T02:21:38;97823.0;;;8.42;100.0
23361;BME280;11852;50.082;18.554;2023-11-21T02:22:43;97817.0;;;8.41;100.0
23361;BME280;11852;50.082;18.554;2023-11-21T02:23:47;97823.0;;;8.42;100.0
23361;BME280;11852;50.082;18.554;2023-11-21T02:24:52;97822.0;;;8.43;100.0
23361;BME280;11852;50.082;18.554;2023-11-21T02:25:57;97819.0;;;8.4;100.0
23361;BME280;11852;50.082;18.554;2023-11-21T02:27:01;97819.0;;;8.42;100.0
23361;BME280;11852;50.082;18.554;2023-11-21T02:28:06;97820.0;;;8.43;100.0
23361;BME280;11852;50.082;18.554;2023-11-21T02:29:11;97819.0;;;8.45;100.0
23361;BME280;11852;50.082;18.554;2023-11-21T02:30:16;97820.0;;;8.43;100.0
23361;BME280;11852;50.082;18.554;2023-11-21T02:31:22;97823.0;;;8.35;100.0
23361;BME280;11852;50.082;18.554;2023-11-21T02:32:27;97823.0;;;8.35;100.0
23361;BME280;11852;50.082;18.554;2023-11-21T02:33:31;97826.0;;;8.33;100.0
23361;BME280;11852;50.082;18.554;2023-11-21T02:34:36;97828.0;;;8.33;100.0
23361;BME280;11852;50.082;18.554;2023-11-21T02:35:41;97833.0;;;8.3;100.0
23361;BME280;11852;50.082;18.554;2023-11-21T02:36:46;97830.0;;;8.26;100.0
23361;BME280;11852;50.082;18.554;2023-11-21T02:37:51;97832.0;;;8.23;100.0
23361;BME280;11852;50.082;18.554;2023-11-21T02:38:55;97834.0;;;8.21;100.0
23361;BME280;11852;50.082;18.554;2023-11-21T02:40:01;97830.0;;;8.22;100.0
23361;BME280;11852;50.082;18.554;2023-11-21T02:41:05;97836.0;;;8.23;100.0
23361;BME280;11852;50.082;18.554;2023-11-21T02:42:10;97833.0;;;8.19;100.0
23361;BME280;11852;50.082;18.554;2023-11-21T02:43:14;97835.0;;;8.18;100.0
23361;BME280;11852;50.082;18.554;2023-11-21T02:44:19;97832.0;;;8.22;100.0
23361;BME280;11852;50.082;18.554;2023-11-21T02:45:24;97832.0;;;8.22;100.0
23361;BME280;11852;50.082;18.554;2023-11-21T02:46:29;97835.0;;;8.16;100.0
23361;BME280;11852;50.082;18.554;2023-11-21T02:47:33;97837.0;;;8.13;100.0
23361;BME280;11852;50.082;18.554;2023-11-21T02:48:38;97836.0;;;8.11;100.0
23361;BME280;11852;50.082;18.554;2023-11-21T02:49:43;97833.0;;;8.13;100.0
23361;BME280;11852;50.082;18.554;2023-11-21T02:50:48;97835.0;;;8.15;100.0
23361;BME280;11852;50.082;18.554;2023-11-21T02:51:53;97838.0;;;8.13;100.0
23361;BME280;11852;50.082;18.554;2023-11-21T02:52:57;97835.0;;;8.12;100.0
23361;BME280;11852;50.082;18.554;2023-11-21T02:54:05;97837.0;;;8.14;100.0
23361;BME280;11852;50.082;18.554;2023-11-21T02:55:10;97836.0;;;8.13;100.0
23361;BME280;11852;50.082;18.554;2023-11-21T02:56:15;97837.0;;;8.15;100.0
23361;BME280;11852;50.082;18.554;2023-11-21T02:57:19;97834.0;;;8.17;100.0
23361;BME280;11852;50.082;18.554;2023-11-21T02:58:24;97835.0;;;8.17;100.0
23361;BME280;11852;50.082;18.554;2023-11-21T02:59:29;97835.0;;;8.18;100.0
23361;BME280;11852;50.082;18.554;2023-11-21T03:00:33;97835.0;;;8.19;100.0
23361;BME280;11852;50.082;18.554;2023-11-21T03:01:38;97834.0;;;8.17;100.0
23361;BME280;11852;50.082;18.554;2023-11-21T03:02:46;97835.0;;;8.16;100.0
23361;BME280;11852;50.082;18.554;2023-11-21T03:03:53;97835.0;;;8.16;100.0
23361;BME280;11852;50.082;18.554;2023-11-21T03:04:58;97841.0;;;8.11;100.0
23361;BME280;11852;50.082;18.554;2023-11-21T03:06:03;97842.0;;;8.12;100.0
23361;BME280;11852;50.082;18.554;2023-11-21T03:07:08;97845.0;;;8.13;100.0
23361;BME280;11852;50.082;18.554;2023-11-21T03:08:12;97843.0;;;8.14;100.0
23361;BME280;11852;50.082;18.554;2023-11-21T03:09:17;97840.0;;;8.13;100.0
23361;BME280;11852;50.082;18.554;2023-11-21T03:10:22;97844.0;;;8.12;100.0
23361;BME280;11852;50.082;18.554;2023-11-21T03:11:27;97845.0;;;8.11;100.0
23361;BME280;11852;50.082;18.554;2023-11-21T03:12:31;97843.0;;;7.99;100.0
23361;BME280;11852;50.082;18.554;2023-11-21T03:13:36;97844.0;;;8.04;100.0
23361;BME280;11852;50.082;18.554;2023-11-21T03:14:41;97839.0;;;7.99;100.0
23361;BME280;11852;50.082;18.554;2023-11-21T03:15:46;97841.0;;;7.96;100.0
23361;BME280;11852;50.082;18.554;2023-11-21T03:16:51;97843.0;;;7.88;100.0
23361;BME280;11852;50.082;18.554;2023-11-21T03:17:55;97841.0;;;7.91;100.0
23361;BME280;11852;50.082;18.554;2023-11-21T03:19:00;97837.0;;;7.96;100.0
23361;BME280;11852;50.082;18.554;2023-11-21T03:20:05;97843.0;;;7.97;100.0
23361;BME280;11852;50.082;18.554;2023-11-21T03:21:10;97835.0;;;7.88;100.0
23361;BME280;11852;50.082;18.554;2023-11-21T03:22:15;97837.0;;;7.84;100.0
23361;BME280;11852;50.082;18.554;2023-11-21T03:23:19;97836.0;;;7.87;100.0
23361;BME280;11852;50.082;18.554;2023-11-21T03:24:24;97840.0;;;7.86;100.0
23361;BME280;11852;50.082;18.554;2023-11-21T03:25:29;97837.0;;;7.89;100.0
23361;BME280;11852;50.082;18.554;2023-11-21T03:26:34;97837.0;;;7.8;100.0
23361;BME280;11852;50.082;18.554;2023-11-21T03:27:39;97840.0;;;7.85;100.0
23361;BME280;11852;50.082;18.554;2023-11-21T03:28:43;97836.0;;;7.86;100.0
23361;BME280;11852;50.082;18.554;2023-11-21T03:29:48;97839.0;;;7.9;100.0
23361;BME280;11852;50.082;18.554;2023-11-21T03:30:53;97838.0;;;7.93;100.0
23361;BME280;11852;50.082;18.554;2023-11-21T03:31:58;97838.0;;;7.81;100.0
23361;BME280;11852;50.082;18.554;2023-11-21T03:33:03;97837.0;;;7.84;100.0
23361;BME280;11852;50.082;18.554;2023-11-21T03:34:10;97838.0;;;7.8;100.0
23361;BME280;11852;50.082;18.554;2023-11-21T03:35:12;97841.0;;;7.79;100.0
23361;BME280;11852;50.082;18.554;2023-11-21T03:36:17;97842.0;;;7.79;100.0
23361;BME280;11852;50.082;18.554;2023-11-21T03:37:22;97842.0;;;7.76;100.0
23361;BME280;11852;50.082;18.554;2023-11-21T03:38:27;97840.0;;;7.69;100.0
23361;BME280;11852;50.082;18.554;2023-11-21T03:39:34;97839.0;;;7.77;100.0
23361;BME280;11852;50.082;18.554;2023-11-21T03:40:38;97836.0;;;7.8;100.0
23361;BME280;11852;50.082;18.554;2023-11-21T03:41:43;97840.0;;;7.83;100.0
23361;BME280;11852;50.082;18.554;2023-11-21T03:42:48;97838.0;;;7.78;100.0
23361;BME280;11852;50.082;18.554;2023-11-21T03:43:52;97837.0;;;7.82;100.0
23361;BME280;11852;50.082;18.554;2023-11-21T03:44:57;97840.0;;;7.78;100.0
23361;BME280;11852;50.082;18.554;2023-11-21T03:46:02;97838.0;;;7.75;100.0
23361;BME280;11852;50.082;18.554;2023-11-21T03:47:07;97839.0;;;7.78;100.0
23361;BME280;11852;50.082;18.554;2023-11-21T03:48:12;97835.0;;;7.75;100.0
23361;BME280;11852;50.082;18.554;2023-11-21T03:49:17;97839.0;;;7.76;100.0
23361;BME280;11852;50.082;18.554;2023-11-21T03:50:21;97835.0;;;7.75;100.0
23361;BME280;11852;50.082;18.554;2023-11-21T03:51:26;97831.0;;;7.64;100.0
23361;BME280;11852;50.082;18.554;2023-11-21T03:52:31;97835.0;;;7.67;100.0
23361;BME280;11852;50.082;18.554;2023-11-21T03:53:36;97840.0;;;7.67;100.0
23361;BME280;11852;50.082;18.554;2023-11-21T03:54:41;97837.0;;;7.73;100.0
23361;BME280;11852;50.082;18.554;2023-11-21T03:55:46;97837.0;;;7.76;100.0
23361;BME280;11852;50.082;18.554;2023-11-21T03:56:50;97832.0;;;7.77;100.0
23361;BME280;11852;50.082;18.554;2023-11-21T03:57:55;97836.0;;;7.79;100.0
23361;BME280;11852;50.082;18.554;2023-11-21T03:59:00;97833.0;;;7.75;100.0
23361;BME280;11852;50.082;18.554;2023-11-21T04:00:05;97829.0;;;7.75;100.0
23361;BME280;11852;50.082;18.554;2023-11-21T04:01:10;97833.0;;;7.76;100.0
23361;BME280;11852;50.082;18.554;2023-11-21T04:02:15;97833.0;;;7.76;100.0
23361;BME280;11852;50.082;18.554;2023-11-21T04:03:19;97831.0;;;7.79;100.0
23361;BME280;11852;50.082;18.554;2023-11-21T04:04:24;97827.0;;;7.8;100.0
23361;BME280;11852;50.082;18.554;2023-11-21T04:05:29;97831.0;;;7.77;100.0
23361;BME280;11852;50.082;18.554;2023-11-21T04:06:34;97832.0;;;7.78;100.0
23361;BME280;11852;50.082;18.554;2023-11-21T04:07:38;97835.0;;;7.73;100.0
23361;BME280;11852;50.082;18.554;2023-11-21T04:08:44;97834.0;;;7.76;100.0
23361;BME280;11852;50.082;18.554;2023-11-21T04:09:48;97839.0;;;7.76;100.0
23361;BME280;11852;50.082;18.554;2023-11-21T04:10:53;97839.0;;;7.77;100.0
23361;BME280;11852;50.082;18.554;2023-11-21T04:11:58;97840.0;;;7.77;100.0
23361;BME280;11852;50.082;18.554;2023-11-21T04:13:02;97838.0;;;7.77;100.0
23361;BME280;11852;50.082;18.554;2023-11-21T04:14:07;97841.0;;;7.77;100.0
23361;BME280;11852;50.082;18.554;2023-11-21T04:15:15;97840.0;;;7.77;100.0
23361;BME280;11852;50.082;18.554;2023-11-21T04:16:20;97839.0;;;7.74;100.0
23361;BME280;11852;50.082;18.554;2023-11-21T04:17:25;97840.0;;;7.75;100.0
23361;BME280;11852;50.082;18.554;2023-11-21T04:18:29;97835.0;;;7.77;100.0
23361;BME280;11852;50.082;18.554;2023-11-21T04:19:34;97833.0;;;7.75;100.0
23361;BME280;11852;50.082;18.554;2023-11-21T04:20:39;97836.0;;;7.73;100.0
23361;BME280;11852;50.082;18.554;2023-11-21T04:21:43;97834.0;;;7.74;100.0
23361;BME280;11852;50.082;18.554;2023-11-21T04:22:48;97831.0;;;7.71;100.0
23361;BME280;11852;50.082;18.554;2023-11-21T04:23:53;97833.0;;;7.68;100.0
23361;BME280;11852;50.082;18.554;2023-11-21T04:24:58;97832.0;;;7.6;100.0
23361;BME280;11852;50.082;18.554;2023-11-21T04:26:03;97833.0;;;7.66;100.0
23361;BME280;11852;50.082;18.554;2023-11-21T04:27:07;97837.0;;;7.61;100.0
23361;BME280;11852;50.082;18.554;2023-11-21T04:28:12;97835.0;;;7.67;100.0
23361;BME280;11852;50.082;18.554;2023-11-21T04:29:17;97835.0;;;7.64;100.0
23361;BME280;11852;50.082;18.554;2023-11-21T04:30:21;97833.0;;;7.66;100.0
23361;BME280;11852;50.082;18.554;2023-11-21T04:31:26;97838.0;;;7.64;100.0
23361;BME280;11852;50.082;18.554;2023-11-21T04:32:31;97836.0;;;7.64;100.0
23361;BME280;11852;50.082;18.554;2023-11-21T04:33:36;97840.0;;;7.49;100.0
23361;BME280;11852;50.082;18.554;2023-11-21T04:34:40;97842.0;;;7.56;100.0
23361;BME280;11852;50.082;18.554;2023-11-21T04:35:45;97845.0;;;7.53;100.0
23361;BME280;11852;50.082;18.554;2023-11-21T04:36:50;97848.0;;;7.56;100.0
23361;BME280;11852;50.082;18.554;2023-11-21T04:37:55;97848.0;;;7.53;100.0
23361;BME280;11852;50.082;18.554;2023-11-21T04:39:00;97849.0;;;7.69;100.0
23361;BME280;11852;50.082;18.554;2023-11-21T04:40:05;97851.0;;;7.73;100.0
23361;BME280;11852;50.082;18.554;2023-11-21T04:41:09;97850.0;;;7.76;100.0
23361;BME280;11852;50.082;18.554;2023-11-21T04:42:14;97858.0;;;7.8;100.0
23361;BME280;11852;50.082;18.554;2023-11-21T04:43:19;97854.0;;;7.81;100.0
23361;BME280;11852;50.082;18.554;2023-11-21T04:44:24;97859.0;;;7.79;100.0
23361;BME280;11852;50.082;18.554;2023-11-21T04:45:29;97858.0;;;7.77;100.0
23361;BME280;11852;50.082;18.554;2023-11-21T04:46:34;97854.0;;;7.78;100.0
23361;BME280;11852;50.082;18.554;2023-11-21T04:47:38;97859.0;;;7.8;100.0
23361;BME280;11852;50.082;18.554;2023-11-21T04:48:43;97859.0;;;7.81;100.0
23361;BME280;11852;50.082;18.554;2023-11-21T04:49:48;97858.0;;;7.8;100.0
23361;BME280;11852;50.082;18.554;2023-11-21T04:50:52;97863.0;;;7.76;100.0
23361;BME280;11852;50.082;18.554;2023-11-21T04:51:57;97863.0;;;7.75;100.0
23361;BME280;11852;50.082;18.554;2023-11-21T04:53:02;97865.0;;;7.77;100.0
23361;BME280;11852;50.082;18.554;2023-11-21T04:54:07;97862.0;;;7.78;100.0
23361;BME280;11852;50.082;18.554;2023-11-21T04:55:11;97869.0;;;7.7;100.0
23361;BME280;11852;50.082;18.554;2023-11-21T04:56:16;97872.0;;;7.74;100.0
23361;BME280;11852;50.082;18.554;2023-11-21T04:57:21;97874.0;;;7.79;100.0
23361;BME280;11852;50.082;18.554;2023-11-21T04:58:26;97881.0;;;7.76;100.0
23361;BME280;11852;50.082;18.554;2023-11-21T04:59:31;97884.0;;;7.66;100.0
23361;BME280;11852;50.082;18.554;2023-11-21T05:00:35;97885.0;;;7.71;100.0
23361;BME280;11852;50.082;18.554;2023-11-21T05:01:40;97888.0;;;7.67;100.0
23361;BME280;11852;50.082;18.554;2023-11-21T05:02:45;97888.0;;;7.65;100.0
23361;BME280;11852;50.082;18.554;2023-11-21T05:03:50;97889.0;;;7.64;100.0
23361;BME280;11852;50.082;18.554;2023-11-21T05:04:54;97896.0;;;7.6;100.0
23361;BME280;11852;50.082;18.554;2023-11-21T05:05:59;97897.0;;;7.62;100.0
23361;BME280;11852;50.082;18.554;2023-11-21T05:07:04;97894.0;;;7.64;100.0
23361;BME280;11852;50.082;18.554;2023-11-21T05:08:09;97891.0;;;7.65;100.0
23361;BME280;11852;50.082;18.554;2023-11-21T05:09:14;97897.0;;;7.67;100.0
23361;BME280;11852;50.082;18.554;2023-11-21T05:10:19;97897.0;;;7.66;100.0
23361;BME280;11852;50.082;18.554;2023-11-21T05:11:27;97896.0;;;7.66;100.0
23361;BME280;11852;50.082;18.554;2023-11-21T05:12:31;97900.0;;;7.7;100.0
23361;BME280;11852;50.082;18.554;2023-11-21T05:13:36;97900.0;;;7.72;100.0
23361;BME280;11852;50.082;18.554;2023-11-21T05:14:41;97894.0;;;7.71;100.0
23361;BME280;11852;50.082;18.554;2023-11-21T05:15:45;97899.0;;;7.71;100.0
23361;BME280;11852;50.082;18.554;2023-11-21T05:16:50;97904.0;;;7.7;100.0
23361;BME280;11852;50.082;18.554;2023-11-21T05:17:55;97900.0;;;7.71;100.0
23361;BME280;11852;50.082;18.554;2023-11-21T05:19:01;97899.0;;;7.72;100.0
23361;BME280;11852;50.082;18.554;2023-11-21T05:20:06;97902.0;;;7.72;100.0
23361;BME280;11852;50.082;18.554;2023-11-21T05:21:10;97901.0;;;7.73;100.0
23361;BME280;11852;50.082;18.554;2023-11-21T05:22:16;97902.0;;;7.74;100.0
23361;BME280;11852;50.082;18.554;2023-11-21T05:23:21;97903.0;;;7.74;100.0
23361;BME280;11852;50.082;18.554;2023-11-21T05:24:25;97903.0;;;7.75;100.0
23361;BME280;11852;50.082;18.554;2023-11-21T05:25:30;97897.0;;;7.76;100.0
23361;BME280;11852;50.082;18.554;2023-11-21T05:26:35;97894.0;;;7.77;100.0
23361;BME280;11852;50.082;18.554;2023-11-21T05:27:40;97896.0;;;7.78;100.0
23361;BME280;11852;50.082;18.554;2023-11-21T05:28:45;97899.0;;;7.79;100.0
23361;BME280;11852;50.082;18.554;2023-11-21T05:29:50;97904.0;;;7.79;100.0
23361;BME280;11852;50.082;18.554;2023-11-21T05:30:55;97900.0;;;7.78;100.0
23361;BME280;11852;50.082;18.554;2023-11-21T05:32:00;97906.0;;;7.77;100.0
23361;BME280;11852;50.082;18.554;2023-11-21T05:33:05;97907.0;;;7.79;100.0
23361;BME280;11852;50.082;18.554;2023-11-21T05:34:10;97904.0;;;7.75;100.0
23361;BME280;11852;50.082;18.554;2023-11-21T05:35:14;97903.0;;;7.73;100.0
23361;BME280;11852;50.082;18.554;2023-11-21T05:36:19;97902.0;;;7.73;100.0
23361;BME280;11852;50.082;18.554;2023-11-21T05:37:24;97904.0;;;7.73;100.0
23361;BME280;11852;50.082;18.554;2023-11-21T05:38:29;97905.0;;;7.72;100.0
23361;BME280;11852;50.082;18.554;2023-11-21T05:39:34;97904.0;;;7.71;100.0
23361;BME280;11852;50.082;18.554;2023-11-21T05:40:39;97909.0;;;7.7;100.0
23361;BME280;11852;50.082;18.554;2023-11-21T05:41:44;97912.0;;;7.65;100.0
23361;BME280;11852;50.082;18.554;2023-11-21T05:42:49;97914.0;;;7.63;100.0
23361;BME280;11852;50.082;18.554;2023-11-21T05:43:54;97916.0;;;7.65;100.0
23361;BME280;11852;50.082;18.554;2023-11-21T05:45:04;97927.0;;;7.66;100.0
23361;BME280;11852;50.082;18.554;2023-11-21T05:46:09;97923.0;;;7.64;100.0
23361;BME280;11852;50.082;18.554;2023-11-21T05:47:14;97926.0;;;7.65;100.0
23361;BME280;11852;50.082;18.554;2023-11-21T05:48:19;97924.0;;;7.62;100.0
23361;BME280;11852;50.082;18.554;2023-11-21T05:49:24;97928.0;;;7.65;100.0
23361;BME280;11852;50.082;18.554;2023-11-21T05:50:29;97926.0;;;7.65;100.0